Terminal Aerodrome Forecast
Issued by NWS

Home | Current Version | Previous Version | Text Only | Print | Product List | Glossary Off
Versions: 1 2 3 4 5 6 7 8 9 10 11 12 13 14

000
FTUS45 KGGW 121126
TAFOLF
TAF
KOLF 121126Z 1212/1312 25006KT P6SM FEW140
     FM121800 26010KT P6SM SKC
     FM130000 30020G29KT P6SM SCT180
     FM130900 28014KT P6SM SKC=

USA.gov is the U.S. government's official web portal to all federal, state and local government web resources and services.